createdAt,value
2019-05-16T00:01:34.074Z,12.17
2019-05-16T00:04:08.689Z,8.00
2019-05-16T00:06:40.690Z,6.67
2019-05-16T00:09:13.394Z,7.63
2019-05-16T00:11:45.050Z,6.93
2019-05-16T00:14:18.844Z,7.37
2019-05-16T00:16:51.314Z,7.27
2019-05-16T00:19:24.035Z,6.30
2019-05-16T00:21:58.117Z,9.90
2019-05-16T00:24:30.673Z,6.20
2019-05-16T00:27:04.106Z,5.90
2019-05-16T00:29:38.170Z,8.97
2019-05-16T00:32:11.390Z,8.17
2019-05-16T00:34:47.799Z,6.77
2019-05-16T00:37:22.945Z,6.10
2019-05-16T00:39:53.387Z,6.30
2019-05-16T00:42:28.638Z,7.03
2019-05-16T00:45:00.834Z,6.73
2019-05-16T00:47:33.100Z,7.80
2019-05-16T00:50:09.717Z,6.67
2019-05-16T00:52:42.441Z,6.70
2019-05-16T00:55:17.776Z,6.70
2019-05-16T00:57:52.002Z,7.27
2019-05-16T01:00:49.411Z,7.83
2019-05-16T01:03:21.027Z,7.47
2019-05-16T01:05:52.569Z,6.60
2019-05-16T01:08:24.199Z,7.67
2019-05-16T01:10:55.765Z,7.70
2019-05-16T01:13:27.850Z,7.60
2019-05-16T01:19:11.617Z,6.63
2019-05-16T01:21:44.693Z,7.67
2019-05-16T01:24:18.769Z,6.73
2019-05-16T01:26:50.442Z,8.63
2019-05-16T01:29:22.261Z,8.33
2019-05-16T01:31:59.023Z,8.63
2019-05-16T01:34:31.757Z,8.10
2019-05-16T01:37:08.257Z,9.83
2019-05-16T01:39:41.826Z,9.77
2019-05-16T01:42:15.694Z,9.77
2019-05-16T01:44:48.703Z,10.60
2019-05-16T01:47:21.531Z,12.37
2019-05-16T01:49:53.768Z,8.60
2019-05-16T01:52:28.920Z,7.73
2019-05-16T01:55:00.699Z,10.43
2019-05-16T01:57:33.815Z,7.93
2019-05-16T02:00:08.462Z,8.77
2019-05-16T02:02:40.538Z,8.30
2019-05-16T02:05:15.358Z,8.20
2019-05-16T02:07:48.137Z,7.20
2019-05-16T02:10:20.906Z,8.80
2019-05-16T02:12:53.361Z,7.27
2019-05-16T02:15:25.306Z,6.30
2019-05-16T02:17:58.691Z,7.17
2019-05-16T02:20:31.060Z,9.23
2019-05-16T02:23:08.026Z,7.30
2019-05-16T02:25:40.813Z,7.10
2019-05-16T02:28:13.160Z,8.63
2019-05-16T02:30:45.375Z,7.03
2019-05-16T02:33:20.925Z,8.07
2019-05-16T02:35:55.583Z,8.00
2019-05-16T02:38:25.623Z,9.17
2019-05-16T02:41:02.635Z,9.40
2019-05-16T02:43:33.278Z,8.73
2019-05-16T02:46:06.302Z,8.43
2019-05-16T02:48:41.015Z,8.27
2019-05-16T02:51:13.308Z,8.73
2019-05-16T02:53:45.507Z,9.73
2019-05-16T02:56:17.223Z,8.40
2019-05-16T02:58:52.122Z,10.47
2019-05-16T03:04:30.641Z,9.00
2019-05-16T03:07:03.621Z,8.87
2019-05-16T03:09:41.043Z,10.63
2019-05-16T03:12:13.786Z,9.90
2019-05-16T03:14:50.286Z,8.93
2019-05-16T03:17:23.771Z,8.73
2019-05-16T03:20:01.529Z,9.63
2019-05-16T03:22:34.176Z,10.40
2019-05-16T03:25:12.188Z,9.63
2019-05-16T03:27:44.541Z,9.03
2019-05-16T03:30:23.260Z,9.47
2019-05-16T03:32:54.645Z,8.40
2019-05-16T03:35:25.991Z,10.97
2019-05-16T03:38:03.995Z,8.83
2019-05-16T03:40:35.127Z,8.27
2019-05-16T03:43:11.352Z,7.63
2019-05-16T03:45:42.412Z,7.70
2019-05-16T03:48:14.498Z,8.03
2019-05-16T03:50:50.455Z,8.60
2019-05-16T03:53:21.590Z,7.93
2019-05-16T03:55:53.687Z,9.20
2019-05-16T03:58:27.299Z,8.97
2019-05-16T04:01:02.233Z,7.97
2019-05-16T04:03:35.269Z,9.33
2019-05-16T04:06:11.541Z,10.80
2019-05-16T04:08:41.685Z,13.00
2019-05-16T04:11:18.200Z,12.77
2019-05-16T04:13:50.804Z,9.10
2019-05-16T04:16:24.562Z,8.43
2019-05-16T04:18:57.925Z,7.97
2019-05-16T04:21:32.326Z,11.20
2019-05-16T04:24:05.866Z,10.43
2019-05-16T04:26:40.932Z,10.17
2019-05-16T04:29:12.344Z,8.90
2019-05-16T04:31:44.138Z,9.40
2019-05-16T04:34:16.279Z,11.23
2019-05-16T04:36:51.214Z,8.43
2019-05-16T04:39:24.408Z,8.07
2019-05-16T04:41:56.196Z,9.10
2019-05-16T04:44:31.040Z,7.63
2019-05-16T04:47:02.491Z,10.10
2019-05-16T04:49:34.650Z,10.63
2019-05-16T04:52:07.328Z,10.67
2019-05-16T04:54:44.624Z,8.23
2019-05-16T04:57:20.976Z,10.23
2019-05-16T04:59:53.230Z,9.20
2019-05-16T05:02:26.363Z,10.50
2019-05-16T05:05:01.265Z,10.30
2019-05-16T05:07:33.748Z,10.67
2019-05-16T05:10:10.941Z,9.47
2019-05-16T05:12:45.728Z,8.77
2019-05-16T05:18:30.258Z,11.97
2019-05-16T05:21:03.096Z,9.17
2019-05-16T05:23:35.176Z,10.63
2019-05-16T05:26:07.409Z,11.40
2019-05-16T05:28:41.064Z,9.53
2019-05-16T05:31:13.856Z,9.77
2019-05-16T05:33:46.556Z,9.70
2019-05-16T05:36:20.822Z,8.10
2019-05-16T05:39:07.461Z,8.37
2019-05-16T05:41:27.505Z,9.10
2019-05-16T05:44:01.248Z,10.10
2019-05-16T05:46:33.109Z,8.77
2019-05-16T05:49:05.667Z,7.03
2019-05-16T05:51:37.569Z,6.80
2019-05-16T05:54:10.903Z,7.50
2019-05-16T05:56:45.096Z,7.20
2019-05-16T05:59:16.802Z,8.90
2019-05-16T06:01:51.633Z,6.87
2019-05-16T06:04:23.144Z,7.07
2019-05-16T06:06:55.186Z,9.60
2019-05-16T06:09:32.005Z,7.60
2019-05-16T06:12:07.525Z,7.30
2019-05-16T06:14:57.940Z,6.70
2019-05-16T06:17:33.522Z,6.53
2019-05-16T06:20:14.076Z,7.03
2019-05-16T06:22:42.025Z,6.63
2019-05-16T06:25:14.068Z,7.00
2019-05-16T06:27:46.516Z,8.07
2019-05-16T06:30:21.307Z,8.50
2019-05-16T06:32:53.869Z,7.87
2019-05-16T06:35:26.588Z,6.47
2019-05-16T06:38:00.587Z,12.30
2019-05-16T06:40:32.739Z,8.33
2019-05-16T06:43:06.032Z,11.77
2019-05-16T06:45:40.224Z,10.63
2019-05-16T06:48:21.442Z,6.63
2019-05-16T06:50:54.995Z,9.23
2019-05-16T06:53:29.768Z,6.17
2019-05-16T06:56:01.571Z,9.57
2019-05-16T06:59:05.805Z,6.23
2019-05-16T07:01:40.476Z,7.27
2019-05-16T07:04:13.640Z,5.77
2019-05-16T07:06:58.091Z,6.53
2019-05-16T07:09:22.732Z,6.57
2019-05-16T07:12:34.130Z,7.03
2019-05-16T07:15:50.201Z,5.77
2019-05-16T07:18:40.356Z,6.60
2019-05-16T07:21:15.489Z,9.70
2019-05-16T07:23:51.017Z,5.77
2019-05-16T07:26:22.730Z,8.43
2019-05-16T07:28:55.465Z,8.57
2019-05-16T07:31:29.963Z,8.97
2019-05-16T07:34:24.122Z,7.27
2019-05-16T07:36:57.560Z,6.23
2019-05-16T07:39:30.675Z,6.97
2019-05-16T07:42:27.418Z,7.17
2019-05-16T07:45:10.379Z,7.10
2019-05-16T07:47:43.010Z,5.77
2019-05-16T07:50:15.362Z,6.53
2019-05-16T07:52:50.833Z,5.63
2019-05-16T07:55:22.714Z,7.97
2019-05-16T07:57:55.532Z,5.60
2019-05-16T08:00:48.007Z,5.57
2019-05-16T08:03:04.768Z,5.67
2019-05-16T08:05:41.237Z,8.33
2019-05-16T08:08:13.636Z,7.90
2019-05-16T08:10:47.101Z,8.17
2019-05-16T08:13:21.131Z,10.70
2019-05-16T08:15:55.106Z,10.07
2019-05-16T08:18:30.207Z,10.83
2019-05-16T08:21:02.908Z,10.63
2019-05-16T08:24:14.025Z,8.90
2019-05-16T08:26:50.495Z,8.33
2019-05-16T08:29:33.586Z,8.67
2019-05-16T08:32:15.302Z,5.80
2019-05-16T08:34:51.455Z,4.90
2019-05-16T08:37:36.833Z,5.63
2019-05-16T08:39:56.820Z,5.63
2019-05-16T08:42:32.282Z,4.57
2019-05-16T08:45:05.228Z,5.40
2019-05-16T08:47:41.894Z,4.80
2019-05-16T08:50:46.324Z,3.90
2019-05-16T08:53:37.282Z,3.40
2019-05-16T08:56:13.267Z,3.93
2019-05-16T08:59:04.392Z,5.67
2019-05-16T09:01:51.450Z,7.07
2019-05-16T09:04:17.409Z,4.37
2019-05-16T09:10:00.882Z,4.27
2019-05-16T09:12:33.651Z,7.03
2019-05-16T09:15:07.674Z,3.90
2019-05-16T09:17:40.241Z,5.60
2019-05-16T09:20:17.170Z,4.77
2019-05-16T09:22:49.160Z,3.53
2019-05-16T09:25:22.309Z,4.20
2019-05-16T09:31:07.497Z,3.33
2019-05-16T09:33:40.246Z,3.77
2019-05-16T09:36:12.762Z,4.20
2019-05-16T09:38:48.474Z,3.27
2019-05-16T09:41:21.093Z,4.03
2019-05-16T09:43:54.729Z,3.30
2019-05-16T09:46:58.589Z,5.07
2019-05-16T09:49:40.212Z,4.57
2019-05-16T09:52:51.741Z,3.67
2019-05-16T09:55:31.274Z,4.77
2019-05-16T09:58:07.134Z,3.50
2019-05-16T10:00:38.172Z,3.30
2019-05-16T10:06:21.878Z,2.80
2019-05-16T10:08:54.384Z,5.50
2019-05-16T10:11:31.066Z,5.07
2019-05-16T10:13:59.665Z,3.70
2019-05-16T10:16:32.231Z,4.20
2019-05-16T10:19:04.552Z,3.10
2019-05-16T10:21:37.901Z,4.70
2019-05-16T10:24:10.226Z,7.03
2019-05-16T10:26:46.736Z,3.10
2019-05-16T10:29:19.360Z,3.40
2019-05-16T10:31:53.239Z,6.23
2019-05-16T10:34:26.613Z,4.37
2019-05-16T10:40:10.057Z,3.80
2019-05-16T10:42:42.279Z,4.23
2019-05-16T10:45:16.591Z,3.77
2019-05-16T10:47:48.853Z,3.53
2019-05-16T10:50:21.955Z,4.17
2019-05-16T10:53:22.301Z,4.47
2019-05-16T10:55:36.806Z,4.77
2019-05-16T10:58:09.266Z,6.37
2019-05-16T11:01:07.786Z,6.33
2019-05-16T11:03:18.142Z,4.07
2019-05-16T11:09:01.115Z,4.50
2019-05-16T11:11:36.636Z,5.10
2019-05-16T11:17:19.574Z,4.50
2019-05-16T11:19:52.079Z,5.93
2019-05-16T11:22:29.516Z,4.73
2019-05-16T11:24:58.746Z,5.57
2019-05-16T11:27:32.561Z,4.30
2019-05-16T11:30:07.731Z,4.17
2019-05-16T11:32:40.079Z,4.10
2019-05-16T11:35:12.357Z,4.53
2019-05-16T11:37:46.920Z,3.80
2019-05-16T11:40:24.088Z,5.37
2019-05-16T11:43:06.605Z,4.07
2019-05-16T11:45:30.018Z,5.37
2019-05-16T11:48:01.809Z,4.37
2019-05-16T11:50:36.962Z,7.50
2019-05-16T11:53:07.960Z,4.50
2019-05-16T11:55:51.741Z,4.20
2019-05-16T11:58:14.190Z,3.80
2019-05-16T12:00:48.175Z,4.20
2019-05-16T12:03:19.593Z,5.07
2019-05-16T12:05:51.894Z,3.73
2019-05-16T12:11:34.762Z,5.33
2019-05-16T12:14:07.610Z,4.20
2019-05-16T12:19:52.969Z,4.33
2019-05-16T12:22:26.678Z,4.03
2019-05-16T12:24:58.066Z,7.20
2019-05-16T12:27:33.249Z,5.13
2019-05-16T12:30:13.022Z,4.30
2019-05-16T12:32:41.471Z,4.17
2019-05-16T12:38:24.274Z,4.13
2019-05-16T12:40:56.820Z,3.93
2019-05-16T12:43:44.808Z,4.70
2019-05-16T12:46:07.530Z,4.90
2019-05-16T12:48:39.070Z,8.10
2019-05-16T12:51:11.830Z,4.70
2019-05-16T12:53:44.337Z,7.33
2019-05-16T12:56:22.727Z,5.37
2019-05-16T12:58:56.473Z,5.00
2019-05-16T13:01:34.203Z,6.03
2019-05-16T13:04:01.874Z,5.67
2019-05-16T13:06:33.762Z,4.87
2019-05-16T13:09:07.788Z,6.37
2019-05-16T13:11:40.083Z,4.87
2019-05-16T13:14:12.021Z,5.60
2019-05-16T13:16:47.389Z,4.63
2019-05-16T13:19:19.077Z,4.20
2019-05-16T13:21:51.437Z,4.97
2019-05-16T13:24:24.073Z,4.20
2019-05-16T13:30:08.883Z,7.80
2019-05-16T13:32:41.062Z,5.70
2019-05-16T13:35:13.237Z,5.40
2019-05-16T13:37:47.724Z,5.47
2019-05-16T13:40:20.438Z,4.10
2019-05-16T13:42:53.086Z,4.70
2019-05-16T13:45:27.267Z,4.60
2019-05-16T13:47:59.245Z,5.57
2019-05-16T13:50:31.443Z,5.00
2019-05-16T13:53:02.997Z,4.50
2019-05-16T13:55:34.796Z,5.47
2019-05-16T13:58:08.231Z,6.23
2019-05-16T14:00:40.471Z,5.00
2019-05-16T14:03:12.139Z,5.17
2019-05-16T14:05:43.698Z,4.10
2019-05-16T14:08:17.064Z,4.90
2019-05-16T14:10:49.692Z,5.73
2019-05-16T14:13:22.332Z,6.50
2019-05-16T14:15:54.054Z,5.77
2019-05-16T14:18:27.251Z,4.93
2019-05-16T14:20:59.687Z,8.03
2019-05-16T14:23:31.850Z,4.83
2019-05-16T14:26:07.124Z,6.33
2019-05-16T14:28:38.011Z,5.43
2019-05-16T14:31:10.263Z,5.60
2019-05-16T14:33:42.207Z,6.00
2019-05-16T14:36:14.504Z,5.13
2019-05-16T14:38:46.828Z,5.03
2019-05-16T14:41:18.653Z,6.33
2019-05-16T14:43:51.907Z,6.10
2019-05-16T14:46:23.757Z,7.63
2019-05-16T14:48:55.840Z,7.53
2019-05-16T14:51:31.891Z,6.77
2019-05-16T14:54:02.514Z,5.83
2019-05-16T14:56:34.813Z,7.03
2019-05-16T14:59:08.404Z,6.30
2019-05-16T15:01:40.688Z,6.33
2019-05-16T15:04:13.310Z,6.87
2019-05-16T15:06:46.948Z,6.87
2019-05-16T15:09:20.439Z,6.23
2019-05-16T15:11:53.637Z,8.27
2019-05-16T15:14:28.035Z,7.03
2019-05-16T15:17:00.263Z,7.17
2019-05-16T15:19:32.425Z,7.50
2019-05-16T15:22:04.275Z,7.10
2019-05-16T15:24:37.794Z,8.27
2019-05-16T15:27:09.648Z,6.53
2019-05-16T15:29:41.750Z,5.27
2019-05-16T15:32:14.014Z,7.43
2019-05-16T15:34:47.811Z,5.90
2019-05-16T15:37:19.546Z,7.53
2019-05-16T15:39:54.353Z,6.97
2019-05-16T15:42:27.800Z,10.00
2019-05-16T15:44:59.836Z,6.80
2019-05-16T15:47:32.280Z,6.83
2019-05-16T15:50:04.225Z,8.53
2019-05-16T15:52:38.597Z,6.00
2019-05-16T15:55:12.193Z,11.07
2019-05-16T15:57:43.786Z,6.70
2019-05-16T16:00:18.207Z,7.13
2019-05-16T16:02:49.489Z,6.63
2019-05-16T16:05:21.916Z,6.60
2019-05-16T16:07:54.171Z,7.33
2019-05-16T16:10:37.802Z,8.20
2019-05-16T16:13:09.716Z,6.73
2019-05-16T16:15:50.461Z,5.67
2019-05-16T16:18:19.502Z,7.93
2019-05-16T16:20:48.671Z,6.77
2019-05-16T16:23:20.872Z,7.57
2019-05-16T16:25:53.221Z,5.90
2019-05-16T16:28:27.088Z,8.57
2019-05-16T16:30:58.497Z,7.10
2019-05-16T16:33:30.545Z,7.17
2019-05-16T16:36:02.395Z,8.80
2019-05-16T16:38:37.051Z,10.07
2019-05-16T16:41:08.503Z,7.77
2019-05-16T16:43:41.906Z,7.07
2019-05-16T16:46:16.647Z,7.33
2019-05-16T16:48:48.080Z,7.67
2019-05-16T16:51:20.533Z,7.60
2019-05-16T16:53:52.722Z,6.93
2019-05-16T16:56:27.409Z,6.10
2019-05-16T16:59:00.062Z,6.70
2019-05-16T17:01:38.116Z,7.87
2019-05-16T17:04:11.101Z,7.53
2019-05-16T17:06:43.020Z,8.10
2019-05-16T17:09:15.845Z,9.90
2019-05-16T17:11:48.069Z,7.57
2019-05-16T17:14:20.907Z,8.30
2019-05-16T17:20:03.639Z,6.33
2019-05-16T17:22:37.475Z,7.97
2019-05-16T17:25:11.364Z,6.87
2019-05-16T17:27:43.253Z,7.20
2019-05-16T17:30:18.411Z,6.50
2019-05-16T17:32:50.395Z,6.83
2019-05-16T17:35:30.928Z,8.63
2019-05-16T17:38:03.259Z,8.23
2019-05-16T17:40:37.479Z,8.23
2019-05-16T17:43:10.827Z,6.23
2019-05-16T17:45:43.015Z,6.20
2019-05-16T17:48:17.802Z,7.47
2019-05-16T17:50:51.479Z,11.60
2019-05-16T17:53:26.655Z,7.50
2019-05-16T17:55:58.848Z,9.00
2019-05-16T17:58:30.979Z,6.13
2019-05-16T18:01:06.812Z,8.80
2019-05-16T18:03:39.633Z,6.03
2019-05-16T18:06:12.989Z,7.73
2019-05-16T18:08:46.873Z,9.23
2019-05-16T18:11:22.209Z,7.03
2019-05-16T18:13:54.109Z,6.60
2019-05-16T18:16:26.926Z,7.53
2019-05-16T18:19:00.819Z,11.53
2019-05-16T18:21:33.609Z,11.17
2019-05-16T18:24:06.160Z,8.77
2019-05-16T18:26:38.765Z,11.87
2019-05-16T18:29:11.806Z,7.93
2019-05-16T18:31:44.163Z,10.43
2019-05-16T18:34:17.152Z,8.50
2019-05-16T18:36:50.345Z,9.00
2019-05-16T18:39:23.113Z,13.17
2019-05-16T18:41:59.846Z,11.13
2019-05-16T18:44:36.460Z,14.13
2019-05-16T18:47:11.362Z,9.03
2019-05-16T18:49:41.616Z,10.77
2019-05-16T18:52:17.190Z,9.17
2019-05-16T18:54:51.143Z,10.30
2019-05-16T18:57:23.586Z,11.03
2019-05-16T18:59:56.995Z,8.97
2019-05-16T19:02:39.333Z,12.20
2019-05-16T19:05:12.388Z,9.57
2019-05-16T19:08:13.044Z,8.03
2019-05-16T19:10:47.419Z,8.80
2019-05-16T19:13:19.993Z,9.07
2019-05-16T19:15:52.636Z,8.23
2019-05-16T19:18:26.311Z,10.60
2019-05-16T19:21:02.093Z,10.53
2019-05-16T19:26:47.033Z,9.43
2019-05-16T19:29:19.555Z,7.70
2019-05-16T19:31:52.918Z,8.43
2019-05-16T19:34:27.047Z,6.27
2019-05-16T19:37:00.170Z,8.00
2019-05-16T19:39:32.621Z,5.60
2019-05-16T19:42:06.664Z,9.57
2019-05-16T19:44:38.770Z,6.97
2019-05-16T19:47:13.500Z,7.50
2019-05-16T19:49:48.239Z,7.77
2019-05-16T19:52:20.396Z,6.90
2019-05-16T19:54:52.728Z,7.20
2019-05-16T19:57:26.606Z,8.43
2019-05-16T20:00:00.196Z,6.80
2019-05-16T20:02:31.808Z,5.43
2019-05-16T20:05:06.934Z,7.37
2019-05-16T20:10:19.306Z,6.77
2019-05-16T20:12:51.349Z,6.00
2019-05-16T20:18:37.357Z,10.40
2019-05-16T20:21:11.485Z,6.37
2019-05-16T20:24:27.576Z,7.23
2019-05-16T20:27:10.329Z,5.13
2019-05-16T20:29:43.879Z,7.97
2019-05-16T20:32:16.879Z,7.27
2019-05-16T20:34:49.911Z,6.67
2019-05-16T20:37:26.607Z,10.53
2019-05-16T20:39:59.500Z,6.83
2019-05-16T20:42:32.525Z,6.37
2019-05-16T20:45:07.785Z,6.93
2019-05-16T20:47:41.162Z,9.77
2019-05-16T20:50:13.435Z,5.90
2019-05-16T20:52:49.639Z,5.00
2019-05-16T20:55:26.812Z,5.20
2019-05-16T20:58:00.032Z,9.03
2019-05-16T21:00:32.664Z,6.63
2019-05-16T21:03:07.704Z,6.20
2019-05-16T21:08:51.471Z,6.67
2019-05-16T21:11:26.410Z,7.00
2019-05-16T21:13:58.974Z,7.47
2019-05-16T21:16:31.412Z,7.03
2019-05-16T21:19:18.333Z,6.93
2019-05-16T21:21:51.462Z,8.30
2019-05-16T21:24:26.789Z,7.40
2019-05-16T21:27:00.308Z,5.80
2019-05-16T21:29:32.508Z,6.57
2019-05-16T21:32:08.768Z,9.07
2019-05-16T21:34:42.366Z,7.47
2019-05-16T21:37:19.716Z,8.07
2019-05-16T21:39:51.874Z,5.53
2019-05-16T21:42:24.344Z,5.40
2019-05-16T21:44:58.455Z,6.63
2019-05-16T21:47:32.118Z,7.23
2019-05-16T21:50:08.501Z,7.13
2019-05-16T21:52:42.031Z,8.30
2019-05-16T21:55:18.944Z,7.23
2019-05-16T21:57:57.265Z,9.87
2019-05-16T22:00:37.473Z,8.37
2019-05-16T22:03:14.415Z,5.43
2019-05-16T22:05:47.780Z,8.37
2019-05-16T22:08:20.804Z,8.90
2019-05-16T22:11:12.943Z,6.63
2019-05-16T22:13:46.480Z,8.30
2019-05-16T22:16:20.734Z,8.17
2019-05-16T22:18:53.323Z,7.63
2019-05-16T22:21:39.125Z,6.93
2019-05-16T22:24:13.453Z,7.90
2019-05-16T22:26:46.684Z,8.17
2019-05-16T22:29:26.312Z,9.67
2019-05-16T22:31:59.715Z,7.33
2019-05-16T22:34:32.959Z,9.23
2019-05-16T22:37:06.962Z,7.43
2019-05-16T22:39:41.661Z,7.43
2019-05-16T22:42:13.861Z,7.87
2019-05-16T22:44:49.814Z,10.43
2019-05-16T22:47:30.363Z,10.77
2019-05-16T22:50:03.209Z,8.73
2019-05-16T22:52:37.627Z,9.20
2019-05-16T22:55:12.014Z,10.83
2019-05-16T22:57:43.786Z,9.90
2019-05-16T23:00:29.340Z,8.57
2019-05-16T23:03:06.782Z,9.27
2019-05-16T23:05:40.006Z,8.60
2019-05-16T23:08:12.972Z,13.37
2019-05-16T23:10:46.616Z,7.87
2019-05-16T23:13:18.361Z,9.60
2019-05-16T23:15:57.003Z,9.23
2019-05-16T23:18:31.623Z,8.00
2019-05-16T23:21:06.440Z,9.07
2019-05-16T23:23:39.680Z,11.17
2019-05-16T23:26:16.605Z,9.70
2019-05-16T23:28:47.818Z,9.00
2019-05-16T23:31:22.900Z,8.77
2019-05-16T23:33:57.377Z,11.27
2019-05-16T23:36:30.557Z,11.57
2019-05-16T23:39:06.274Z,10.63
2019-05-16T23:41:38.971Z,9.23
2019-05-16T23:44:11.481Z,13.23
2019-05-16T23:46:43.332Z,9.10
2019-05-16T23:49:27.370Z,10.73
2019-05-16T23:51:59.621Z,12.80
2019-05-16T23:54:33.592Z,8.77
2019-05-16T23:57:08.191Z,8.37
2019-05-16T23:59:40.400Z,9.90
